Home > Products > Valid Products > TAF

000
FTUS45 KCYS 260348 AAA
TAFRWL
TAF AMD
KRWL 260348Z 2604/2624 21016KT P6SM SKC
     FM261600 24024G35KT P6SM BKN040=



000
FTUS45 KCYS 252337
TAFCYS
TAF
KCYS 252337Z 2600/2624 20010KT P6SM SKC
     FM260400 25008KT P6SM SKC
     FM261000 27010KT P6SM SKC
     FM261600 27018G24KT P6SM SCT060=



000
FTUS45 KCYS 252337
TAFRWL
TAF
KRWL 252337Z 2600/2624 22018G30KT P6SM SKC
     FM260200 23016KT P6SM SKC
     FM261600 24024G35KT P6SM BKN040=



000
FTUS45 KCYS 252337
TAFLAR
TAF
KLAR 252337Z 2600/2624 24012KT P6SM SKC
     FM260200 20010KT P6SM SKC
     FM261400 24018G30KT P6SM SCT025
     FM261600 25022G34KT P6SM SCT035=



000
FTUS45 KCYS 251720
TAFLAR
TAF
KLAR 251720Z 2518/2618 22012G20KT P6SM SKC
     FM260200 21010KT P6SM SKC
     FM261200 24018G30KT P6SM SKC=



000
FTUS45 KCYS 251720
TAFCYS
TAF
KCYS 251720Z 2518/2618 20010G18KT P6SM SKC
     FM260200 25008KT P6SM SKC
     FM261200 27012KT P6SM SKC=



000
FTUS45 KCYS 251720
TAFRWL
TAF
KRWL 251720Z 2518/2618 22015G28KT P6SM SKC
     FM260200 23015G20KT P6SM SKC
     FM261500 24022G32KT P6SM SKC=



000
FTUS45 KCYS 251720
TAFRWL
TAF
KRWL 251720Z 2518/2618 22015G28KT P6SM SKC
     FM260200 23015G20KT P6SM SKC
     FM261500 24022G32KT P6SM SKC=



000
FTUS45 KCYS 251720
TAFLAR
TAF
KLAR 251720Z 2518/2618 22012G20KT P6SM SKC
     FM260200 21010KT P6SM SKC
     FM261200 24018G30KT P6SM SKC=



000
FTUS45 KCYS 251720
TAFCYS
TAF
KCYS 251720Z 2518/2618 20010G18KT P6SM SKC
     FM260200 25008KT P6SM SKC
     FM261200 27012KT P6SM SKC=



000
FTUS45 KCYS 251333 CCB
TAFCYS
TAF COR
KCYS 251333Z 2514/2612 27012KT P6SM SKC
     FM251800 21012G23KT P6SM SKC
     FM260200 26012KT P6SM SKC=



000
FTUS45 KCYS 251332 AAA
TAFCYS
TAF AMD
KCYS 251332Z 2514/2612 25012KT P6SM SKC
     FM251800 21012G23KT P6SM SKC
     FM260200 26012KT P6SM SKC=



000
FTUS45 KCYS 251332 CCA
TAFCYS
TAF COR
KCYS 251332Z 2514/2612 27012KT P6SM SKC
     FM251800 21012G23KT P6SM SKC
     FM260200 26012KT P6SM SKC=



000
FTUS45 KCYS 251135
TAFCYS
TAF
KCYS 251135Z 2512/2612 27010G20KT P6SM SKC
     FM251800 20012G23KT P6SM SKC
     FM260200 26012KT P6SM SKC=



000
FTUS45 KCYS 251135
TAFRWL
TAF
KRWL 251135Z 2512/2612 15006KT P6SM SKC
     FM251600 22020G32KT P6SM SKC
     FM260200 23013KT P6SM SKC=



000
FTUS45 KCYS 251135
TAFLAR
TAF
KLAR 251135Z 2512/2612 19009KT P6SM SKC
     FM251600 22014G24KT P6SM SKC
     FM260200 19009KT P6SM SKC
     FM260600 23015G25KT P6SM SKC=



000
FTUS45 KCYS 251135
TAFCYS
TAF
KCYS 251135Z 2512/2612 27010G20KT P6SM SKC
     FM251800 20012G23KT P6SM SKC
     FM260200 26012KT P6SM SKC=



000
FTUS45 KCYS 251135
TAFRWL
TAF
KRWL 251135Z 2512/2612 15006KT P6SM SKC
     FM251600 22020G32KT P6SM SKC
     FM260200 23013KT P6SM SKC=



000
FTUS45 KCYS 251135
TAFLAR
TAF
KLAR 251135Z 2512/2612 19009KT P6SM SKC
     FM251600 22014G24KT P6SM SKC
     FM260200 19009KT P6SM SKC
     FM260600 23015G25KT P6SM SKC=



000
FTUS45 KCYS 250520
TAFCYS
TAF
KCYS 250520Z 2506/2606 27007KT P6SM SKC
     FM251800 19010KT P6SM SKC
     FM260200 24007KT P6SM SKC=



000
FTUS45 KCYS 250520
TAFLAR
TAF
KLAR 250520Z 2506/2606 19008KT P6SM SKC
     FM251800 22012G22KT P6SM SKC
     FM260000 21008KT P6SM SKC=



000
FTUS45 KCYS 250520
TAFRWL
TAF
KRWL 250520Z 2506/2606 23008KT P6SM SKC
     FM251800 22018G28KT P6SM SKC
     FM260100 23010KT P6SM SKC=



000
FTUS45 KCYS 242320
TAFRWL
TAF
KRWL 242320Z 2500/2524 23016G24KT P6SM SKC
     FM250100 23008KT P6SM SKC
     FM251800 22018G28KT P6SM SKC=



000
FTUS45 KCYS 242320
TAFLAR
TAF
KLAR 242320Z 2500/2524 24012KT P6SM SKC
     FM250100 21007KT P6SM SKC
     FM251800 22012G22KT P6SM SKC=



000
FTUS45 KCYS 242320
TAFCYS
TAF
KCYS 242320Z 2500/2524 22010KT P6SM SKC
     FM250200 27007KT P6SM SKC
     FM251800 19010KT P6SM SKC=



000
FTUS45 KCYS 241738
TAFCYS
TAF
KCYS 241738Z 2418/2518 28012KT P6SM BKN150
     FM242100 28014G24KT P6SM SCT150
     FM250200 24005KT P6SM SCT150
     FM250500 27012KT P6SM SCT150=



000
FTUS45 KCYS 241738
TAFLAR
TAF
KLAR 241738Z 2418/2518 24017G28KT P6SM SCT150
     FM250100 22007KT P6SM SKC=



000
FTUS45 KCYS 241738
TAFRWL
TAF
KRWL 241738Z 2418/2518 23018G28KT P6SM FEW150
     FM250100 22006KT P6SM SCT150
     FM251600 24015G24KT P6SM SKC=



000
FTUS45 KCYS 241120
TAFRWL
TAF
KRWL 241120Z 2412/2512 24013KT P6SM SCT150
     FM241800 23020G32KT P6SM SCT150
     FM250200 24008KT P6SM SCT150=



000
FTUS45 KCYS 241120
TAFLAR
TAF
KLAR 241120Z 2412/2512 22010KT P6SM SCT150
     FM241800 24017G28KT P6SM SCT150
     FM250200 22010KT P6SM SCT150=



000
FTUS45 KCYS 241120
TAFCYS
TAF
KCYS 241120Z 2412/2512 27013G24KT P6SM BKN150
     FM241800 23014G25KT P6SM SCT150
     FM250200 28010KT P6SM SCT150=



000
FTUS45 KCYS 240520
TAFRWL
TAF
KRWL 240520Z 2406/2506 24009KT P6SM BKN200
     FM241600 24022G32KT P6SM SKC
     FM250200 24009KT P6SM SKC=



000
FTUS45 KCYS 240520
TAFCYS
TAF
KCYS 240520Z 2406/2506 22009KT P6SM BKN200
     FM241500 27014G24KT P6SM SKC
     FM250100 24008KT P6SM SKC=



000
FTUS45 KCYS 240520
TAFLAR
TAF
KLAR 240520Z 2406/2506 26010KT P6SM SCT200
     FM241600 25018G28KT P6SM SKC
     FM250100 22008KT P6SM SKC=



000
FTUS45 KCYS 232329 CCA
TAFCYS
TAF COR
KCYS 232329Z 2400/2424 22009KT P6SM BKN200
     FM241500 27014G24KT P6SM SKC=



000
FTUS45 KCYS 232321
TAFLAR
TAF
KLAR 232321Z 2400/2424 23010KT P6SM BKN200
     FM241600 25020G32KT P6SM SKC=



000
FTUS45 KCYS 232321
TAFRWL
TAF
KRWL 232321Z 2400/2424 23014G22KT P6SM BKN200
     FM241600 24024G34KT P6SM SKC=



000
FTUS45 KCYS 232321
TAFCYS
TAF
KCYS 232321Z 2400/2424 26009KT P6SM BKN200
     FM241500 27014G24KT P6SM SKC=



000
FTUS45 KCYS 232000 AAA
TAFCYS
TAF AMD
KCYS 232051Z 2321/2418 26018G28KT P6SM BKN150
     FM240000 26009KT P6SM BKN200=



000
FTUS45 KCYS 231700
TAFLAR
TAF
KLAR 231720Z 2318/2418 25018G28KT P6SM BKN200
     FM240000 22011KT P6SM BKN200=



000
FTUS45 KCYS 231700
TAFRWL
TAF
KRWL 231720Z 2318/2418 24018G28KT P6SM BKN200
     FM240000 23010G20KT P6SM BKN150=



000
FTUS45 KCYS 231700
TAFCYS
TAF
KCYS 231720Z 2318/2418 24015G25KT P6SM BKN150
     FM240000 26009KT P6SM BKN200=



000
FTUS45 KCYS 231100
TAFRWL
TAF
KRWL 231120Z 2312/2412 24011KT P6SM SCT250
     FM231700 24019G28KT P6SM SCT150 BKN200
     FM232300 23010G20KT P6SM BKN150=



000
FTUS45 KCYS 231100
TAFLAR
TAF
KLAR 231120Z 2312/2412 23010KT P6SM SCT250
     FM231600 25018G28KT P6SM BKN150
     FM240000 22011KT P6SM BKN150=



000
FTUS45 KCYS 231100
TAFCYS
TAF
KCYS 231120Z 2312/2412 25010KT P6SM SCT250
     FM231600 26017G25KT P6SM BKN200
     FM240000 24009KT P6SM BKN150=



000
FTUS45 KCYS 230500
TAFLAR
TAF
KLAR 230520Z 2306/2406 22008KT P6SM SCT250
     FM231200 23011KT P6SM SCT250
     FM231600 25018G28KT P6SM BKN200=



000
FTUS45 KCYS 230500
TAFCYS
TAF
KCYS 230520Z 2306/2406 27008KT P6SM SCT250
     FM231200 25010KT P6SM SCT250
     FM231600 26017G25KT P6SM BKN200=



000
FTUS45 KCYS 230500
TAFRWL
TAF
KRWL 230520Z 2306/2406 24009KT P6SM SCT250
     FM231500 24018G28KT P6SM SCT150 BKN200=



    US Dept of Commerce
    National Oceanic and Atmospheric Administration
    National Weather Service
    1325 East West Highway
    Silver Spring, MD 20910
    Page Author: NWS Internet Services Team
Disclaimer
Information Quality
Credits
Glossary
Privacy Policy
Freedom of Information Act (FOIA)
About Us
Career Opportunities